sensor_id;sensor_type;location;lat;lon;timestamp;pressure;altitude;pressure_sealevel;temperature;humidity
5814;BME280;2933;52.302;8.134;2023-07-09T00:02:40;100815.59;;;21.25;86.55
5814;BME280;2933;52.302;8.134;2023-07-09T00:07:42;100815.59;;;21.25;85.20
5814;BME280;2933;52.302;8.134;2023-07-09T00:12:46;100823.81;;;21.40;85.31
5814;BME280;2933;52.302;8.134;2023-07-09T00:17:48;100827.47;;;21.57;82.78
5814;BME280;2933;52.302;8.134;2023-07-09T00:22:49;100837.53;;;21.27;85.78
5814;BME280;2933;52.302;8.134;2023-07-09T00:27:54;100840.19;;;21.27;86.46
5814;BME280;2933;52.302;8.134;2023-07-09T00:32:56;100837.00;;;21.24;87.31
5814;BME280;2933;52.302;8.134;2023-07-09T00:37:57;100847.38;;;21.35;86.09
5814;BME280;2933;52.302;8.134;2023-07-09T00:43:02;100840.56;;;21.14;87.11
5814;BME280;2933;52.302;8.134;2023-07-09T00:48:05;100847.72;;;20.96;89.18
5814;BME280;2933;52.302;8.134;2023-07-09T00:53:13;100827.78;;;21.10;88.64
5814;BME280;2933;52.302;8.134;2023-07-09T00:58:20;100830.50;;;20.64;91.83
5814;BME280;2933;52.302;8.134;2023-07-09T01:03:28;100823.06;;;20.67;91.88
5814;BME280;2933;52.302;8.134;2023-07-09T01:08:31;100813.00;;;20.71;91.66
5814;BME280;2933;52.302;8.134;2023-07-09T01:13:35;100819.72;;;20.65;92.41
5814;BME280;2933;52.302;8.134;2023-07-09T01:18:39;100817.66;;;20.59;92.71
5814;BME280;2933;52.302;8.134;2023-07-09T01:23:43;100813.69;;;20.73;91.29
5814;BME280;2933;52.302;8.134;2023-07-09T01:28:45;100826.16;;;20.63;91.91
5814;BME280;2933;52.302;8.134;2023-07-09T01:33:47;100817.75;;;20.67;91.32
5814;BME280;2933;52.302;8.134;2023-07-09T01:38:51;100815.25;;;20.48;92.43
5814;BME280;2933;52.302;8.134;2023-07-09T01:43:53;100817.31;;;20.26;93.55
5814;BME280;2933;52.302;8.134;2023-07-09T01:48:55;100819.16;;;20.26;93.84
5814;BME280;2933;52.302;8.134;2023-07-09T01:53:58;100808.22;;;20.29;95.04
5814;BME280;2933;52.302;8.134;2023-07-09T01:59:00;100813.09;;;20.33;94.63
5814;BME280;2933;52.302;8.134;2023-07-09T02:04:02;100809.63;;;20.33;94.33
5814;BME280;2933;52.302;8.134;2023-07-09T02:09:05;100823.91;;;20.22;95.57
5814;BME280;2933;52.302;8.134;2023-07-09T02:14:06;100813.88;;;19.98;98.09
5814;BME280;2933;52.302;8.134;2023-07-09T02:19:08;100809.22;;;20.00;98.03
5814;BME280;2933;52.302;8.134;2023-07-09T02:24:11;100809.59;;;19.77;99.62
5814;BME280;2933;52.302;8.134;2023-07-09T02:29:12;100817.00;;;19.74;98.73
5814;BME280;2933;52.302;8.134;2023-07-09T02:34:14;100819.25;;;19.68;99.21
5814;BME280;2933;52.302;8.134;2023-07-09T02:39:16;100808.28;;;19.53;99.65
5814;BME280;2933;52.302;8.134;2023-07-09T02:44:18;100809.06;;;19.64;100.00
5814;BME280;2933;52.302;8.134;2023-07-09T02:49:22;100812.59;;;19.64;98.41
5814;BME280;2933;52.302;8.134;2023-07-09T02:54:25;100818.47;;;19.58;99.24
5814;BME280;2933;52.302;8.134;2023-07-09T02:59:27;100819.31;;;19.39;100.00
5814;BME280;2933;52.302;8.134;2023-07-09T03:04:29;100821.81;;;19.50;99.84
5814;BME280;2933;52.302;8.134;2023-07-09T03:09:33;100814.44;;;19.44;100.00
5814;BME280;2933;52.302;8.134;2023-07-09T03:14:35;100826.97;;;19.52;100.00
5814;BME280;2933;52.302;8.134;2023-07-09T03:19:37;100828.69;;;19.33;100.00
5814;BME280;2933;52.302;8.134;2023-07-09T03:24:39;100831.50;;;19.22;100.00
5814;BME280;2933;52.302;8.134;2023-07-09T03:29:41;100837.38;;;19.06;100.00
5814;BME280;2933;52.302;8.134;2023-07-09T03:34:42;100831.22;;;19.25;100.00
5814;BME280;2933;52.302;8.134;2023-07-09T03:39:46;100819.66;;;19.16;100.00
5814;BME280;2933;52.302;8.134;2023-07-09T03:44:48;100830.41;;;18.95;100.00
5814;BME280;2933;52.302;8.134;2023-07-09T03:49:49;100824.13;;;19.06;100.00
5814;BME280;2933;52.302;8.134;2023-07-09T03:54:52;100817.88;;;18.97;100.00
5814;BME280;2933;52.302;8.134;2023-07-09T03:59:53;100821.88;;;19.21;100.00
5814;BME280;2933;52.302;8.134;2023-07-09T04:04:55;100830.47;;;19.43;100.00
5814;BME280;2933;52.302;8.134;2023-07-09T04:09:58;100821.25;;;19.47;100.00
5814;BME280;2933;52.302;8.134;2023-07-09T04:14:59;100822.19;;;19.56;100.00
5814;BME280;2933;52.302;8.134;2023-07-09T04:20:02;100815.84;;;19.48;100.00
5814;BME280;2933;52.302;8.134;2023-07-09T04:25:09;100812.72;;;19.53;100.00
5814;BME280;2933;52.302;8.134;2023-07-09T04:30:13;100815.63;;;19.69;100.00
5814;BME280;2933;52.302;8.134;2023-07-09T04:35:15;100809.97;;;19.92;100.00
5814;BME280;2933;52.302;8.134;2023-07-09T04:40:18;100818.66;;;20.12;100.00
5814;BME280;2933;52.302;8.134;2023-07-09T04:45:20;100828.41;;;20.22;100.00
5814;BME280;2933;52.302;8.134;2023-07-09T04:50:21;100815.31;;;20.38;100.00
5814;BME280;2933;52.302;8.134;2023-07-09T04:55:25;100826.06;;;20.55;100.00
5814;BME280;2933;52.302;8.134;2023-07-09T05:00:26;100834.22;;;20.71;100.00
5814;BME280;2933;52.302;8.134;2023-07-09T05:05:28;100824.84;;;20.95;98.70
5814;BME280;2933;52.302;8.134;2023-07-09T05:10:31;100818.22;;;20.99;100.00
5814;BME280;2933;52.302;8.134;2023-07-09T05:15:32;100824.78;;;21.31;98.17
5814;BME280;2933;52.302;8.134;2023-07-09T05:20:34;100838.00;;;21.49;88.31
5814;BME280;2933;52.302;8.134;2023-07-09T05:25:37;100839.91;;;21.83;89.78
5814;BME280;2933;52.302;8.134;2023-07-09T05:30:41;100829.97;;;22.02;77.04
5814;BME280;2933;52.302;8.134;2023-07-09T05:35:43;100832.59;;;22.28;79.74
5814;BME280;2933;52.302;8.134;2023-07-09T05:40:46;100840.41;;;22.30;70.41
5814;BME280;2933;52.302;8.134;2023-07-09T05:45:48;100835.66;;;22.50;69.55
5814;BME280;2933;52.302;8.134;2023-07-09T05:50:53;100840.47;;;22.63;69.31
5814;BME280;2933;52.302;8.134;2023-07-09T05:55:56;100842.19;;;22.80;71.21
5814;BME280;2933;52.302;8.134;2023-07-09T06:00:57;100855.50;;;22.88;72.01
5814;BME280;2933;52.302;8.134;2023-07-09T06:05:59;100860.81;;;23.05;70.15
5814;BME280;2933;52.302;8.134;2023-07-09T06:11:03;100857.88;;;23.16;69.17
5814;BME280;2933;52.302;8.134;2023-07-09T06:16:05;100855.34;;;23.39;68.67
5814;BME280;2933;52.302;8.134;2023-07-09T06:21:06;100854.47;;;23.55;68.79
5814;BME280;2933;52.302;8.134;2023-07-09T06:26:12;100857.28;;;23.79;66.92
5814;BME280;2933;52.302;8.134;2023-07-09T06:31:13;100867.78;;;23.72;68.27
5814;BME280;2933;52.302;8.134;2023-07-09T06:36:15;100868.44;;;23.82;68.40
5814;BME280;2933;52.302;8.134;2023-07-09T06:41:17;100863.56;;;23.94;69.56
5814;BME280;2933;52.302;8.134;2023-07-09T06:46:19;100872.84;;;24.15;68.53
5814;BME280;2933;52.302;8.134;2023-07-09T06:51:21;100877.47;;;24.21;65.48
5814;BME280;2933;52.302;8.134;2023-07-09T06:56:24;100880.25;;;24.36;64.56
5814;BME280;2933;52.302;8.134;2023-07-09T07:01:26;100881.47;;;24.57;65.68
5814;BME280;2933;52.302;8.134;2023-07-09T07:06:27;100877.34;;;24.77;65.35
5814;BME280;2933;52.302;8.134;2023-07-09T07:11:30;100875.50;;;25.01;64.60
5814;BME280;2933;52.302;8.134;2023-07-09T07:16:32;100876.50;;;25.23;62.73
5814;BME280;2933;52.302;8.134;2023-07-09T07:21:33;100884.88;;;25.43;61.63
5814;BME280;2933;52.302;8.134;2023-07-09T07:26:36;100886.28;;;25.69;61.85
5814;BME280;2933;52.302;8.134;2023-07-09T07:31:37;100881.88;;;25.76;60.88
5814;BME280;2933;52.302;8.134;2023-07-09T07:36:39;100880.59;;;25.87;58.97
5814;BME280;2933;52.302;8.134;2023-07-09T07:41:42;100887.03;;;26.23;57.79
5814;BME280;2933;52.302;8.134;2023-07-09T07:46:43;100882.03;;;26.35;57.37
5814;BME280;2933;52.302;8.134;2023-07-09T07:51:46;100884.91;;;26.55;57.50
5814;BME280;2933;52.302;8.134;2023-07-09T07:56:49;100877.66;;;26.70;57.78
5814;BME280;2933;52.302;8.134;2023-07-09T08:01:51;100884.59;;;26.80;56.74
5814;BME280;2933;52.302;8.134;2023-07-09T08:06:53;100877.94;;;26.97;57.12
5814;BME280;2933;52.302;8.134;2023-07-09T08:11:55;100873.59;;;27.18;58.75
5814;BME280;2933;52.302;8.134;2023-07-09T08:16:57;100870.56;;;27.28;57.13
5814;BME280;2933;52.302;8.134;2023-07-09T08:21:58;100858.16;;;27.48;57.18
5814;BME280;2933;52.302;8.134;2023-07-09T08:27:01;100866.31;;;27.68;57.49
5814;BME280;2933;52.302;8.134;2023-07-09T08:32:04;100879.91;;;28.02;57.88
5814;BME280;2933;52.302;8.134;2023-07-09T08:37:06;100864.72;;;28.16;53.77
5814;BME280;2933;52.302;8.134;2023-07-09T08:42:16;100870.13;;;28.29;58.20
5814;BME280;2933;52.302;8.134;2023-07-09T08:47:27;100872.25;;;28.54;53.64
5814;BME280;2933;52.302;8.134;2023-07-09T08:52:35;100863.66;;;28.72;53.31
5814;BME280;2933;52.302;8.134;2023-07-09T08:57:40;100871.75;;;28.92;51.52
5814;BME280;2933;52.302;8.134;2023-07-09T09:02:46;100867.19;;;29.06;50.14
5814;BME280;2933;52.302;8.134;2023-07-09T09:07:54;100864.06;;;29.43;53.57
5814;BME280;2933;52.302;8.134;2023-07-09T09:13:05;100867.16;;;29.66;49.35
5814;BME280;2933;52.302;8.134;2023-07-09T09:18:19;100871.63;;;29.86;46.90
5814;BME280;2933;52.302;8.134;2023-07-09T09:23:21;100868.31;;;29.97;48.14
5814;BME280;2933;52.302;8.134;2023-07-09T09:28:24;100863.72;;;30.05;46.82
5814;BME280;2933;52.302;8.134;2023-07-09T09:33:36;100856.16;;;30.27;47.65
5814;BME280;2933;52.302;8.134;2023-07-09T09:38:38;100859.00;;;30.39;44.42
5814;BME280;2933;52.302;8.134;2023-07-09T09:43:44;100869.41;;;30.67;45.60
5814;BME280;2933;52.302;8.134;2023-07-09T09:48:47;100874.38;;;30.95;48.66
5814;BME280;2933;52.302;8.134;2023-07-09T09:53:52;100865.41;;;31.02;45.50
5814;BME280;2933;52.302;8.134;2023-07-09T09:58:58;100869.16;;;31.07;44.37
5814;BME280;2933;52.302;8.134;2023-07-09T10:04:02;100865.06;;;31.23;45.14
5814;BME280;2933;52.302;8.134;2023-07-09T10:09:12;100865.22;;;31.29;46.07
5814;BME280;2933;52.302;8.134;2023-07-09T10:14:29;100872.00;;;31.56;45.19
5814;BME280;2933;52.302;8.134;2023-07-09T10:19:39;100870.75;;;31.96;44.55
5814;BME280;2933;52.302;8.134;2023-07-09T10:24:53;100860.41;;;31.93;43.43
5814;BME280;2933;52.302;8.134;2023-07-09T10:30:15;100869.53;;;32.11;43.35
5814;BME280;2933;52.302;8.134;2023-07-09T10:35:28;100871.50;;;32.03;40.96
5814;BME280;2933;52.302;8.134;2023-07-09T10:40:36;100863.75;;;32.07;41.49
5814;BME280;2933;52.302;8.134;2023-07-09T10:45:44;100861.38;;;32.48;43.50
5814;BME280;2933;52.302;8.134;2023-07-09T10:50:51;100867.88;;;32.70;40.89
5814;BME280;2933;52.302;8.134;2023-07-09T10:55:56;100857.56;;;32.79;36.29
5814;BME280;2933;52.302;8.134;2023-07-09T11:01:02;100858.53;;;32.85;36.43
5814;BME280;2933;52.302;8.134;2023-07-09T11:06:11;100856.75;;;32.79;36.22
5814;BME280;2933;52.302;8.134;2023-07-09T11:11:23;100851.38;;;33.02;38.05
5814;BME280;2933;52.302;8.134;2023-07-09T11:16:29;100839.38;;;33.22;36.28
5814;BME280;2933;52.302;8.134;2023-07-09T11:21:32;100846.19;;;33.01;36.12
5814;BME280;2933;52.302;8.134;2023-07-09T11:26:35;100847.50;;;33.46;37.44
5814;BME280;2933;52.302;8.134;2023-07-09T11:31:40;100838.88;;;33.49;36.40
5814;BME280;2933;52.302;8.134;2023-07-09T11:36:49;100839.53;;;33.68;35.90
5814;BME280;2933;52.302;8.134;2023-07-09T11:41:51;100837.47;;;33.46;36.49
5814;BME280;2933;52.302;8.134;2023-07-09T11:52:25;100830.13;;;33.82;35.08
5814;BME280;2933;52.302;8.134;2023-07-09T11:57:29;100832.03;;;34.11;35.65
5814;BME280;2933;52.302;8.134;2023-07-09T12:02:33;100835.63;;;34.17;33.85
5814;BME280;2933;52.302;8.134;2023-07-09T12:07:37;100832.66;;;34.01;33.16
5814;BME280;2933;52.302;8.134;2023-07-09T12:12:42;100811.63;;;34.37;33.78
5814;BME280;2933;52.302;8.134;2023-07-09T12:17:52;100801.78;;;34.48;32.62
5814;BME280;2933;52.302;8.134;2023-07-09T12:22:55;100795.06;;;34.51;33.30
5814;BME280;2933;52.302;8.134;2023-07-09T12:27:58;100795.28;;;34.83;34.04
5814;BME280;2933;52.302;8.134;2023-07-09T12:32:59;100768.22;;;34.71;32.02
5814;BME280;2933;52.302;8.134;2023-07-09T12:38:02;100782.16;;;34.29;32.86
5814;BME280;2933;52.302;8.134;2023-07-09T12:43:04;100774.41;;;34.50;32.60
5814;BME280;2933;52.302;8.134;2023-07-09T12:48:07;100767.28;;;34.60;31.33
5814;BME280;2933;52.302;8.134;2023-07-09T12:53:17;100767.19;;;34.89;31.93
5814;BME280;2933;52.302;8.134;2023-07-09T12:58:22;100783.50;;;35.11;32.91
5814;BME280;2933;52.302;8.134;2023-07-09T13:03:26;100786.81;;;35.14;31.84
5814;BME280;2933;52.302;8.134;2023-07-09T13:08:31;100760.72;;;35.13;32.03
5814;BME280;2933;52.302;8.134;2023-07-09T13:13:33;100742.63;;;35.23;32.64
5814;BME280;2933;52.302;8.134;2023-07-09T13:18:34;100754.88;;;35.26;32.68
5814;BME280;2933;52.302;8.134;2023-07-09T13:23:37;100750.63;;;35.30;33.17
5814;BME280;2933;52.302;8.134;2023-07-09T13:28:40;100751.31;;;35.20;33.15
5814;BME280;2933;52.302;8.134;2023-07-09T13:33:41;100738.09;;;35.29;32.82
5814;BME280;2933;52.302;8.134;2023-07-09T13:38:44;100740.53;;;35.48;33.17
5814;BME280;2933;52.302;8.134;2023-07-09T13:43:47;100730.41;;;35.43;33.87
5814;BME280;2933;52.302;8.134;2023-07-09T13:48:49;100737.97;;;35.63;32.30
5814;BME280;2933;52.302;8.134;2023-07-09T13:53:54;100758.28;;;35.83;31.95
5814;BME280;2933;52.302;8.134;2023-07-09T13:58:55;100748.47;;;35.54;31.57
5814;BME280;2933;52.302;8.134;2023-07-09T14:03:57;100743.22;;;35.25;31.53
5814;BME280;2933;52.302;8.134;2023-07-09T14:09:01;100747.75;;;34.81;34.17
5814;BME280;2933;52.302;8.134;2023-07-09T14:14:07;100740.88;;;35.12;33.34
5814;BME280;2933;52.302;8.134;2023-07-09T14:19:14;100730.78;;;35.30;32.95
5814;BME280;2933;52.302;8.134;2023-07-09T14:24:22;100735.44;;;35.79;32.92
5814;BME280;2933;52.302;8.134;2023-07-09T14:29:25;100725.66;;;35.55;31.53
5814;BME280;2933;52.302;8.134;2023-07-09T14:34:28;100708.75;;;35.48;34.07
5814;BME280;2933;52.302;8.134;2023-07-09T14:39:31;100684.75;;;35.18;33.50
5814;BME280;2933;52.302;8.134;2023-07-09T14:44:32;100671.38;;;34.89;33.04
5814;BME280;2933;52.302;8.134;2023-07-09T14:49:34;100657.22;;;35.31;34.39
5814;BME280;2933;52.302;8.134;2023-07-09T14:54:37;100655.13;;;34.72;34.12
5814;BME280;2933;52.302;8.134;2023-07-09T14:59:38;100668.22;;;34.58;34.37
5814;BME280;2933;52.302;8.134;2023-07-09T15:04:41;100667.16;;;34.59;34.60
5814;BME280;2933;52.302;8.134;2023-07-09T15:09:45;100662.06;;;34.28;35.51
5814;BME280;2933;52.302;8.134;2023-07-09T15:14:46;100658.63;;;33.99;35.19
5814;BME280;2933;52.302;8.134;2023-07-09T15:19:48;100651.56;;;34.15;37.51
5814;BME280;2933;52.302;8.134;2023-07-09T15:24:51;100643.53;;;34.03;37.00
5814;BME280;2933;52.302;8.134;2023-07-09T15:29:52;100651.06;;;34.01;36.85
5814;BME280;2933;52.302;8.134;2023-07-09T15:34:54;100631.22;;;33.66;37.75
5814;BME280;2933;52.302;8.134;2023-07-09T15:39:58;100646.34;;;33.62;37.42
5814;BME280;2933;52.302;8.134;2023-07-09T15:44:59;100646.91;;;33.35;38.31
5814;BME280;2933;52.302;8.134;2023-07-09T15:50:01;100649.16;;;33.39;38.69
5814;BME280;2933;52.302;8.134;2023-07-09T15:55:07;100659.25;;;33.02;38.47
5814;BME280;2933;52.302;8.134;2023-07-09T16:00:14;100657.97;;;32.93;39.96
5814;BME280;2933;52.302;8.134;2023-07-09T16:05:23;100655.84;;;32.83;42.24
5814;BME280;2933;52.302;8.134;2023-07-09T16:10:30;100654.44;;;32.57;42.87
5814;BME280;2933;52.302;8.134;2023-07-09T16:15:32;100655.75;;;32.31;44.52
5814;BME280;2933;52.302;8.134;2023-07-09T16:20:33;100659.09;;;32.02;47.34
5814;BME280;2933;52.302;8.134;2023-07-09T16:25:36;100646.94;;;31.81;48.13
5814;BME280;2933;52.302;8.134;2023-07-09T16:30:38;100631.50;;;31.58;49.54
5814;BME280;2933;52.302;8.134;2023-07-09T16:35:39;100621.97;;;31.25;50.69
5814;BME280;2933;52.302;8.134;2023-07-09T16:40:42;100647.78;;;31.21;51.41
5814;BME280;2933;52.302;8.134;2023-07-09T16:45:45;100659.22;;;30.79;55.07
5814;BME280;2933;52.302;8.134;2023-07-09T16:50:47;100817.41;;;28.15;57.62
5814;BME280;2933;52.302;8.134;2023-07-09T16:55:50;100786.06;;;26.60;69.89
5814;BME280;2933;52.302;8.134;2023-07-09T17:00:52;100787.69;;;26.03;83.38
5814;BME280;2933;52.302;8.134;2023-07-09T17:05:53;100791.47;;;25.04;96.66
5814;BME280;2933;52.302;8.134;2023-07-09T17:10:57;100770.22;;;24.64;100.00
5814;BME280;2933;52.302;8.134;2023-07-09T17:16:00;100776.84;;;24.30;100.00
5814;BME280;2933;52.302;8.134;2023-07-09T17:21:02;100796.44;;;24.14;100.00
5814;BME280;2933;52.302;8.134;2023-07-09T17:26:07;100775.97;;;24.06;96.11
5814;BME280;2933;52.302;8.134;2023-07-09T17:31:08;100801.88;;;23.81;95.35
5814;BME280;2933;52.302;8.134;2023-07-09T17:36:14;100802.59;;;24.14;93.28
5814;BME280;2933;52.302;8.134;2023-07-09T17:41:18;100823.84;;;24.62;91.17
5814;BME280;2933;52.302;8.134;2023-07-09T17:46:19;100818.78;;;24.13;97.17
5814;BME280;2933;52.302;8.134;2023-07-09T17:51:21;100822.94;;;24.15;100.00
5814;BME280;2933;52.302;8.134;2023-07-09T17:56:24;100820.38;;;23.99;100.00
5814;BME280;2933;52.302;8.134;2023-07-09T18:01:29;100813.97;;;23.68;100.00
5814;BME280;2933;52.302;8.134;2023-07-09T18:06:31;100821.69;;;24.03;100.00
5814;BME280;2933;52.302;8.134;2023-07-09T18:11:34;100781.53;;;23.88;100.00
5814;BME280;2933;52.302;8.134;2023-07-09T18:16:37;100768.44;;;23.70;100.00
5814;BME280;2933;52.302;8.134;2023-07-09T18:21:39;100737.06;;;23.40;100.00
5814;BME280;2933;52.302;8.134;2023-07-09T18:26:42;100748.50;;;23.49;100.00
5814;BME280;2933;52.302;8.134;2023-07-09T18:31:46;100741.06;;;23.36;100.00
5814;BME280;2933;52.302;8.134;2023-07-09T18:36:48;100744.97;;;23.57;100.00
5814;BME280;2933;52.302;8.134;2023-07-09T18:41:51;100759.81;;;23.60;100.00
5814;BME280;2933;52.302;8.134;2023-07-09T18:46:53;100775.38;;;23.96;100.00
5814;BME280;2933;52.302;8.134;2023-07-09T18:51:54;100786.84;;;23.48;100.00
5814;BME280;2933;52.302;8.134;2023-07-09T18:56:57;100818.88;;;23.15;100.00
5814;BME280;2933;52.302;8.134;2023-07-09T19:01:59;100810.72;;;23.00;100.00
5814;BME280;2933;52.302;8.134;2023-07-09T19:07:00;100810.88;;;22.99;100.00
5814;BME280;2933;52.302;8.134;2023-07-09T19:12:04;100782.59;;;22.73;100.00
5814;BME280;2933;52.302;8.134;2023-07-09T19:17:10;100777.75;;;22.85;100.00
5814;BME280;2933;52.302;8.134;2023-07-09T19:22:13;100774.91;;;23.03;100.00
5814;BME280;2933;52.302;8.134;2023-07-09T19:27:16;100765.28;;;22.85;100.00
5814;BME280;2933;52.302;8.134;2023-07-09T19:32:23;100771.59;;;22.43;100.00
5814;BME280;2933;52.302;8.134;2023-07-09T19:37:27;100758.97;;;22.78;100.00
5814;BME280;2933;52.302;8.134;2023-07-09T19:42:31;100752.97;;;22.84;100.00
5814;BME280;2933;52.302;8.134;2023-07-09T19:47:35;100744.97;;;22.59;100.00
5814;BME280;2933;52.302;8.134;2023-07-09T19:52:39;100749.63;;;22.41;100.00
5814;BME280;2933;52.302;8.134;2023-07-09T19:57:42;100749.97;;;22.46;100.00
5814;BME280;2933;52.302;8.134;2023-07-09T20:02:43;100760.78;;;22.53;100.00
5814;BME280;2933;52.302;8.134;2023-07-09T20:07:45;100770.44;;;22.70;100.00
5814;BME280;2933;52.302;8.134;2023-07-09T20:12:50;100769.47;;;22.71;100.00
5814;BME280;2933;52.302;8.134;2023-07-09T20:17:57;100774.84;;;22.28;100.00
5814;BME280;2933;52.302;8.134;2023-07-09T20:22:59;100793.06;;;22.50;100.00
5814;BME280;2933;52.302;8.134;2023-07-09T20:28:07;100797.88;;;22.38;100.00
5814;BME280;2933;52.302;8.134;2023-07-09T20:33:12;100802.13;;;22.22;100.00
5814;BME280;2933;52.302;8.134;2023-07-09T20:38:15;100799.47;;;22.22;100.00
5814;BME280;2933;52.302;8.134;2023-07-09T20:43:20;100815.78;;;22.36;100.00
5814;BME280;2933;52.302;8.134;2023-07-09T20:48:23;100816.19;;;22.57;100.00
5814;BME280;2933;52.302;8.134;2023-07-09T20:53:24;100807.25;;;22.16;100.00
5814;BME280;2933;52.302;8.134;2023-07-09T20:58:28;100811.47;;;22.35;100.00
5814;BME280;2933;52.302;8.134;2023-07-09T21:03:31;100804.81;;;21.88;100.00
5814;BME280;2933;52.302;8.134;2023-07-09T21:08:32;100792.50;;;21.87;100.00
5814;BME280;2933;52.302;8.134;2023-07-09T21:13:35;100803.88;;;21.97;100.00
5814;BME280;2933;52.302;8.134;2023-07-09T21:18:37;100787.38;;;21.85;100.00
5814;BME280;2933;52.302;8.134;2023-07-09T21:23:38;100799.38;;;21.89;100.00
5814;BME280;2933;52.302;8.134;2023-07-09T21:28:41;100802.25;;;21.70;100.00
5814;BME280;2933;52.302;8.134;2023-07-09T21:33:43;100806.59;;;21.71;100.00
5814;BME280;2933;52.302;8.134;2023-07-09T21:38:44;100791.94;;;21.67;100.00
5814;BME280;2933;52.302;8.134;2023-07-09T21:43:47;100800.91;;;21.66;100.00
5814;BME280;2933;52.302;8.134;2023-07-09T21:48:49;100803.56;;;21.66;100.00
5814;BME280;2933;52.302;8.134;2023-07-09T21:53:50;100803.72;;;21.64;100.00
5814;BME280;2933;52.302;8.134;2023-07-09T21:58:53;100804.22;;;21.41;100.00
5814;BME280;2933;52.302;8.134;2023-07-09T22:03:56;100811.50;;;21.57;100.00
5814;BME280;2933;52.302;8.134;2023-07-09T22:08:57;100812.50;;;21.56;100.00
5814;BME280;2933;52.302;8.134;2023-07-09T22:14:00;100801.13;;;21.46;100.00
5814;BME280;2933;52.302;8.134;2023-07-09T22:19:02;100796.66;;;21.81;100.00
5814;BME280;2933;52.302;8.134;2023-07-09T22:24:05;100790.09;;;21.41;100.00
5814;BME280;2933;52.302;8.134;2023-07-09T22:29:09;100793.09;;;21.38;100.00
5814;BME280;2933;52.302;8.134;2023-07-09T22:34:17;100783.78;;;21.42;100.00
5814;BME280;2933;52.302;8.134;2023-07-09T22:39:20;100770.53;;;21.76;100.00
5814;BME280;2933;52.302;8.134;2023-07-09T22:44:23;100765.00;;;21.61;100.00
5814;BME280;2933;52.302;8.134;2023-07-09T22:49:25;100778.44;;;21.94;100.00
5814;BME280;2933;52.302;8.134;2023-07-09T22:54:26;100779.16;;;21.70;100.00
5814;BME280;2933;52.302;8.134;2023-07-09T22:59:29;100774.72;;;21.53;100.00
5814;BME280;2933;52.302;8.134;2023-07-09T23:04:31;100767.59;;;21.27;100.00
5814;BME280;2933;52.302;8.134;2023-07-09T23:09:32;100759.44;;;21.20;100.00
5814;BME280;2933;52.302;8.134;2023-07-09T23:14:35;100761.50;;;21.08;100.00
5814;BME280;2933;52.302;8.134;2023-07-09T23:19:37;100743.94;;;21.07;100.00
5814;BME280;2933;52.302;8.134;2023-07-09T23:24:38;100749.16;;;20.99;100.00
5814;BME280;2933;52.302;8.134;2023-07-09T23:29:41;100740.84;;;20.94;100.00
5814;BME280;2933;52.302;8.134;2023-07-09T23:34:43;100742.16;;;21.16;100.00
5814;BME280;2933;52.302;8.134;2023-07-09T23:39:45;100746.00;;;21.22;100.00
5814;BME280;2933;52.302;8.134;2023-07-09T23:44:47;100746.69;;;20.79;100.00
5814;BME280;2933;52.302;8.134;2023-07-09T23:49:49;100733.94;;;20.83;100.00
5814;BME280;2933;52.302;8.134;2023-07-09T23:54:50;100743.88;;;20.81;100.00
5814;BME280;2933;52.302;8.134;2023-07-09T23:59:53;100754.81;;;20.78;100.00
